Time;durP1;ratioP1;P1;durP2;ratioP2;P2;SDS_P1;SDS_P2;PMS_P1;PMS_P2;Temp;Humidity;BMP_temperature;BMP_pressure;BME280_temperature;BME280_humidity;BME280_pressure;Samples;Min_cycle;Max_cycle;Signal;HPM_P1;HPM_P2
2021/08/09 00:00:02;;;;;;;14.23;4.30;;;;;;;16.66;95.62;100662.31;4796894;29;20049;-79
2021/08/09 00:02:28;;;;;;;20.00;4.60;;;;;;;16.60;95.79;100660.56;4825535;29;20119;-79
2021/08/09 00:04:53;;;;;;;13.00;4.32;;;;;;;16.66;95.87;100665.03;4830092;29;20027;-79
2021/08/09 00:07:18;;;;;;;17.83;4.60;;;;;;;16.65;95.47;100661.50;4825988;29;20045;-79
2021/08/09 00:09:44;;;;;;;15.70;4.78;;;;;;;16.59;95.49;100654.31;4824249;29;20124;-79
2021/08/09 00:12:09;;;;;;;19.05;5.20;;;;;;;16.61;95.80;100659.50;4827673;29;20136;-79
2021/08/09 00:14:38;;;;;;;19.15;4.90;;;;;;;16.65;96.09;100668.81;4827412;29;20338;-79
2021/08/09 00:17:04;;;;;;;20.50;6.28;;;;;;;16.64;96.59;100676.13;4821257;29;20034;-78
2021/08/09 00:19:29;;;;;;;15.88;5.68;;;;;;;16.60;96.67;100676.88;4826016;29;20069;-78
2021/08/09 00:21:56;;;;;;;19.95;6.22;;;;;;;16.52;97.08;100672.63;4827138;29;20038;-78
2021/08/09 00:24:22;;;;;;;20.02;6.55;;;;;;;16.47;97.59;100671.72;4828268;29;20073;-79
2021/08/09 00:26:48;;;;;;;18.27;6.50;;;;;;;16.43;97.63;100669.50;4826293;29;20041;-78
2021/08/09 00:29:13;;;;;;;16.73;5.80;;;;;;;16.47;98.01;100685.31;4828197;29;20042;-78
2021/08/09 00:31:38;;;;;;;18.13;6.28;;;;;;;16.43;98.23;100693.09;4825814;29;20053;-78
2021/08/09 00:34:04;;;;;;;19.00;6.40;;;;;;;16.29;98.77;100667.28;4812200;29;20042;-78
2021/08/09 00:36:31;;;;;;;18.83;6.85;;;;;;;16.40;98.75;100693.59;4828324;29;20049;-79
2021/08/09 00:38:56;;;;;;;21.88;6.40;;;;;;;16.36;98.65;100695.97;4828842;29;20354;-79
2021/08/09 00:41:21;;;;;;;18.42;6.40;;;;;;;16.31;98.96;100698.56;4828259;29;20046;-79
2021/08/09 00:43:47;;;;;;;18.88;6.40;;;;;;;16.31;99.00;100701.28;4828298;29;20030;-78
2021/08/09 00:46:12;;;;;;;19.92;6.75;;;;;;;16.28;99.18;100709.06;4827671;29;20034;-79
2021/08/09 00:48:38;;;;;;;20.17;6.70;;;;;;;16.16;99.16;100696.34;4827308;29;20042;-79
2021/08/09 00:51:04;;;;;;;19.13;6.60;;;;;;;16.24;99.34;100710.63;4829757;29;20046;-79
2021/08/09 00:53:31;;;;;;;18.15;6.63;;;;;;;16.20;99.54;100713.00;4829552;29;20034;-78
2021/08/09 00:55:56;;;;;;;18.73;5.97;;;;;;;16.17;99.55;100703.44;4827940;29;20372;-79
2021/08/09 00:58:22;;;;;;;18.08;6.72;;;;;;;16.15;99.43;100715.59;4829050;29;20037;-79
2021/08/09 01:00:48;;;;;;;19.23;7.10;;;;;;;16.10;99.80;100712.78;4812745;29;20054;-79
2021/08/09 01:03:14;;;;;;;22.48;6.80;;;;;;;16.05;99.71;100709.94;4828878;29;20353;-79
2021/08/09 01:05:41;;;;;;;23.10;7.05;;;;;;;16.02;99.94;100704.97;4829139;29;20373;-79
2021/08/09 01:08:28;;;;;;;19.77;6.82;;;;;;;16.00;99.78;100720.69;4830537;29;20031;-79
2021/08/09 01:11:22;;;;;;;23.58;7.00;;;;;;;15.95;99.75;100721.38;4828662;29;20098;-79
2021/08/09 01:14:13;;;;;;;24.95;7.25;;;;;;;15.86;99.90;100715.50;4828801;29;20457;-79
2021/08/09 01:16:42;;;;;;;27.80;7.35;;;;;;;15.82;100.00;100717.00;4826871;29;20467;-79
2021/08/09 01:19:50;;;;;;;22.65;6.60;;;;;;;15.81;100.00;100726.22;4828614;29;20060;-79
2021/08/09 01:22:39;;;;;;;30.30;7.45;;;;;;;15.82;100.00;100736.00;4808638;29;20042;-79
2021/08/09 01:25:17;;;;;;;27.00;6.57;;;;;;;15.83;100.00;100745.00;4829767;29;20361;-79
2021/08/09 01:27:47;;;;;;;25.50;7.05;;;;;;;15.82;100.00;100752.28;4832132;29;20113;-79
2021/08/09 01:30:14;;;;;;;25.73;7.30;;;;;;;15.79;100.00;100743.78;4829930;29;20454;-79
2021/08/09 01:32:43;;;;;;;20.95;6.80;;;;;;;15.80;100.00;100730.00;4830067;29;20050;-79
2021/08/09 01:35:10;;;;;;;23.60;7.35;;;;;;;15.72;100.00;100720.31;4828934;29;20058;-79
2021/08/09 01:37:41;;;;;;;26.13;7.32;;;;;;;15.79;100.00;100739.19;4827528;29;20069;-79
2021/08/09 01:40:08;;;;;;;25.23;6.93;;;;;;;15.78;100.00;100734.84;4829981;29;20059;-79
2021/08/09 01:42:36;;;;;;;24.23;7.22;;;;;;;15.73;100.00;100745.59;4829292;29;20035;-79
2021/08/09 01:45:02;;;;;;;22.77;6.82;;;;;;;15.73;100.00;100746.41;4829624;29;20022;-79
2021/08/09 01:47:28;;;;;;;25.23;7.32;;;;;;;15.68;100.00;100742.72;4833189;29;20046;-79
2021/08/09 01:49:54;;;;;;;25.65;7.10;;;;;;;15.67;100.00;100750.03;4846342;29;20114;-79
2021/08/09 01:52:20;;;;;;;25.38;6.78;;;;;;;15.64;100.00;100747.78;4838990;29;20037;-79
2021/08/09 01:54:48;;;;;;;27.30;7.22;;;;;;;15.54;100.00;100744.00;4829591;29;20054;-79
2021/08/09 01:57:13;;;;;;;29.13;7.43;;;;;;;15.58;100.00;100758.72;4826035;29;20030;-78
2021/08/09 01:59:40;;;;;;;30.40;7.88;;;;;;;15.56;100.00;100758.94;4826426;29;20038;-79
2021/08/09 02:02:06;;;;;;;25.42;7.43;;;;;;;15.55;100.00;100761.91;4828736;29;20106;-79
2021/08/09 02:04:32;;;;;;;29.38;7.70;;;;;;;15.51;100.00;100758.84;4827677;29;20038;-79
2021/08/09 02:06:57;;;;;;;29.63;8.27;;;;;;;15.43;100.00;100754.59;4827041;29;20022;-79
2021/08/09 02:09:23;;;;;;;27.95;7.68;;;;;;;15.52;100.00;100763.19;4827882;29;20034;-79
2021/08/09 02:11:51;;;;;;;28.25;7.47;;;;;;;15.51;100.00;100759.66;4810473;29;20453;-79
2021/08/09 02:14:20;;;;;;;27.85;7.65;;;;;;;15.50;100.00;100760.72;4828040;29;20499;-79
2021/08/09 02:17:07;;;;;;;33.03;7.70;;;;;;;15.48;100.00;100770.97;4810829;29;20059;-79
2021/08/09 02:19:44;;;;;;;32.45;8.65;;;;;;;15.44;100.00;100768.97;4829706;29;20038;-79
2021/08/09 02:22:24;;;;;;;28.20;7.75;;;;;;;15.43;100.00;100768.13;4828644;29;20116;-79
2021/08/09 02:24:58;;;;;;;32.33;7.82;;;;;;;15.44;100.00;100777.91;4828422;29;20030;-79
2021/08/09 02:27:40;;;;;;;34.55;7.72;;;;;;;15.44;100.00;100774.38;4827167;29;20060;-79
2021/08/09 02:30:07;;;;;;;31.33;7.22;;;;;;;15.41;100.00;100761.28;4828264;29;20045;-79
2021/08/09 02:32:35;;;;;;;28.50;8.07;;;;;;;15.51;100.00;100783.25;4826415;29;20038;-79
2021/08/09 02:35:04;;;;;;;34.72;8.50;;;;;;;15.54;100.00;100771.09;4828949;29;20438;-79
2021/08/09 02:37:31;;;;;;;34.20;8.05;;;;;;;15.50;100.00;100778.88;4839173;29;20046;-79
2021/08/09 02:39:58;;;;;;;28.27;7.47;;;;;;;15.56;100.00;100777.94;4846689;29;20422;-79
2021/08/09 02:42:24;;;;;;;33.85;7.80;;;;;;;15.57;100.00;100784.22;4824379;29;20043;-79
2021/08/09 02:44:50;;;;;;;28.45;7.63;;;;;;;15.55;100.00;100779.00;4811351;29;20039;-79
2021/08/09 02:47:17;;;;;;;29.77;8.52;;;;;;;15.53;100.00;100778.41;4816881;29;20133;-79
2021/08/09 02:49:47;;;;;;;28.55;8.00;;;;;;;15.55;100.00;100780.88;4829230;29;20066;-78
2021/08/09 02:52:14;;;;;;;32.17;7.07;;;;;;;15.54;100.00;100780.06;4828099;29;20026;-79
2021/08/09 02:54:42;;;;;;;29.67;7.13;;;;;;;15.52;100.00;100776.75;4827968;29;20518;-79
2021/08/09 02:57:08;;;;;;;37.22;8.45;;;;;;;15.54;100.00;100782.78;4833644;29;20026;-79
2021/08/09 02:59:35;;;;;;;28.20;6.95;;;;;;;15.56;100.00;100786.06;4847101;29;20452;-79
2021/08/09 03:02:02;;;;;;;31.83;8.10;;;;;;;15.59;100.00;100776.66;4838107;29;20509;-79
2021/08/09 03:04:28;;;;;;;34.42;7.40;;;;;;;15.61;100.00;100783.50;4830379;29;20022;-79
2021/08/09 03:06:56;;;;;;;33.28;8.05;;;;;;;15.62;100.00;100778.91;4829258;29;20038;-80
2021/08/09 03:09:22;;;;;;;38.92;7.95;;;;;;;15.59;100.00;100787.50;4830099;29;20034;-80
2021/08/09 03:11:47;;;;;;;40.83;9.52;;;;;;;15.58;100.00;100788.56;4829372;29;20403;-80
2021/08/09 03:14:26;;;;;;;38.83;7.63;;;;;;;15.55;100.00;100780.88;4834451;29;20034;-80
2021/08/09 03:16:54;;;;;;;36.45;8.77;;;;;;;15.40;100.00;100765.06;4831520;29;20037;-79
2021/08/09 03:19:21;;;;;;;35.88;7.28;;;;;;;15.56;100.00;100786.06;4832018;29;20036;-79
2021/08/09 03:21:55;;;;;;;34.15;7.65;;;;;;;15.54;100.00;100790.09;4830387;29;20049;-79
2021/08/09 03:24:21;;;;;;;32.00;7.03;;;;;;;15.56;100.00;100790.66;4828711;29;20094;-79
2021/08/09 03:26:47;;;;;;;37.30;7.55;;;;;;;15.57;100.00;100786.91;4827648;29;20034;-79
2021/08/09 03:29:13;;;;;;;35.50;7.50;;;;;;;15.55;100.00;100786.31;4825931;29;20054;-79
2021/08/09 03:31:39;;;;;;;30.85;7.20;;;;;;;15.54;100.00;100798.22;4827528;29;20058;-79
2021/08/09 03:34:05;;;;;;;41.65;8.35;;;;;;;15.52;100.00;100793.84;4812147;29;20350;-79
2021/08/09 03:36:30;;;;;;;38.95;8.80;;;;;;;15.48;100.00;100789.13;4826173;29;20042;-79
2021/08/09 03:38:55;;;;;;;34.65;7.63;;;;;;;15.46;100.00;100797.50;4829043;29;20049;-79
2021/08/09 03:41:21;;;;;;;31.50;7.25;;;;;;;15.43;100.00;100800.69;4827529;29;20039;-79
2021/08/09 03:43:46;;;;;;;32.03;7.65;;;;;;;15.40;100.00;100795.72;4811884;29;20038;-79
2021/08/09 03:46:14;;;;;;;32.15;8.20;;;;;;;15.21;100.00;100765.13;4828098;29;20119;-79
2021/08/09 03:48:40;;;;;;;42.80;8.65;;;;;;;15.36;100.00;100799.09;4827554;29;20113;-79
2021/08/09 03:51:05;;;;;;;35.92;7.78;;;;;;;15.35;100.00;100805.59;4843214;29;20090;-79
2021/08/09 03:53:31;;;;;;;47.95;7.45;;;;;;;15.35;100.00;100802.88;4846217;29;20407;-78
2021/08/09 03:55:56;;;;;;;34.85;7.97;;;;;;;15.34;100.00;100812.09;4832411;29;20042;-79
2021/08/09 03:58:23;;;;;;;35.67;7.43;;;;;;;15.31;100.00;100807.94;4831003;29;20046;-79
2021/08/09 04:00:48;;;;;;;37.28;7.72;;;;;;;15.31;100.00;100813.34;4830262;29;20034;-79
2021/08/09 04:03:13;;;;;;;37.10;6.95;;;;;;;15.34;100.00;100818.31;4839719;29;20060;-79
2021/08/09 04:05:39;;;;;;;34.83;7.38;;;;;;;15.38;100.00;100815.97;4819570;29;20049;-79
2021/08/09 04:08:04;;;;;;;30.80;7.28;;;;;;;15.37;100.00;100823.28;4847974;29;20484;-79
2021/08/09 04:10:30;;;;;;;40.40;7.53;;;;;;;15.39;100.00;100821.16;4826044;29;20087;-78
2021/08/09 04:12:56;;;;;;;36.63;6.82;;;;;;;15.39;100.00;100815.72;4845506;29;20037;-79
2021/08/09 04:15:22;;;;;;;38.92;6.60;;;;;;;15.45;100.00;100819.41;4829981;29;20049;-80
2021/08/09 04:17:47;;;;;;;30.77;7.30;;;;;;;15.44;100.00;100824.00;4824664;29;20034;-79
2021/08/09 04:20:13;;;;;;;35.38;6.75;;;;;;;15.46;100.00;100829.19;4819428;29;20117;-79
2021/08/09 04:22:38;;;;;;;31.42;6.15;;;;;;;15.58;100.00;100823.81;4846655;29;20121;-79
2021/08/09 04:25:04;;;;;;;36.97;6.63;;;;;;;15.80;100.00;100838.53;4846792;29;20153;-79
2021/08/09 04:27:30;;;;;;;33.58;7.18;;;;;;;15.73;100.00;100840.53;4849506;29;20045;-79
2021/08/09 04:29:55;;;;;;;34.75;6.43;;;;;;;15.65;100.00;100835.38;4835583;29;20055;-79
2021/08/09 04:32:22;;;;;;;36.60;6.75;;;;;;;15.62;100.00;100836.66;4835757;29;20034;-79
2021/08/09 04:34:47;;;;;;;38.90;7.15;;;;;;;15.62;100.00;100836.66;4835765;29;20047;-77
2021/08/09 04:37:13;;;;;;;35.63;7.70;;;;;;;15.57;100.00;100833.03;4812389;29;20043;-79
2021/08/09 04:39:39;;;;;;;33.78;6.57;;;;;;;15.62;100.00;100841.28;4829984;29;20081;-79
2021/08/09 04:42:05;;;;;;;32.50;7.13;;;;;;;15.68;100.00;100841.22;4829309;29;20034;-78
2021/08/09 04:44:31;;;;;;;35.58;6.35;;;;;;;15.70;100.00;100841.81;4838198;29;20034;-78
2021/08/09 04:46:57;;;;;;;35.50;6.90;;;;;;;15.73;100.00;100846.78;4831471;29;20026;-79
2021/08/09 04:49:26;;;;;;;41.05;7.00;;;;;;;15.74;100.00;100845.72;4834180;29;20456;-79
2021/08/09 04:51:53;;;;;;;32.60;6.88;;;;;;;15.76;100.00;100850.91;4833382;29;20046;-79
2021/08/09 04:54:18;;;;;;;29.90;6.43;;;;;;;15.79;100.00;100844.19;4834313;29;20046;-79
2021/08/09 04:56:44;;;;;;;33.75;6.55;;;;;;;15.74;100.00;100834.03;4810626;29;20377;-79
2021/08/09 04:59:09;;;;;;;42.45;7.47;;;;;;;15.82;100.00;100851.84;4832618;29;20062;-79
2021/08/09 05:01:35;;;;;;;33.40;7.07;;;;;;;15.90;100.00;100836.06;4813652;29;20038;-78
2021/08/09 05:04:02;;;;;;;29.48;6.38;;;;;;;16.03;99.70;100842.34;4826317;29;20053;-79
2021/08/09 05:06:27;;;;;;;29.48;6.35;;;;;;;16.25;98.74;100839.88;4810279;29;20488;-78
2021/08/09 05:08:53;;;;;;;33.28;6.13;;;;;;;16.03;99.10;100820.66;4812019;29;20034;-79
2021/08/09 05:11:18;;;;;;;35.83;6.25;;;;;;;16.69;97.11;100835.72;4828393;29;20467;-78
2021/08/09 05:13:43;;;;;;;31.75;6.05;;;;;;;17.51;94.11;100850.97;4827562;29;20038;-78
2021/08/09 05:16:09;;;;;;;30.52;5.95;;;;;;;17.38;94.76;100852.94;4826654;29;20078;-79
2021/08/09 05:18:34;;;;;;;32.25;6.72;;;;;;;17.11;95.79;100857.25;4825274;29;20039;-79
2021/08/09 05:21:00;;;;;;;28.00;6.18;;;;;;;17.69;93.45;100852.66;4827948;29;20034;-78
2021/08/09 05:23:25;;;;;;;27.05;6.18;;;;;;;17.44;95.03;100839.41;4825034;29;20042;-78
2021/08/09 05:25:51;;;;;;;26.75;6.43;;;;;;;17.98;92.59;100857.00;4827113;29;20445;-79
2021/08/09 05:28:16;;;;;;;24.40;5.45;;;;;;;17.80;93.24;100846.34;4809675;29;20210;-79
2021/08/09 05:30:43;;;;;;;29.23;5.53;;;;;;;18.74;89.47;100843.75;4830628;29;20042;-80
2021/08/09 05:33:09;;;;;;;29.92;5.43;;;;;;;18.39;90.18;100849.47;4827345;29;20362;-79
2021/08/09 05:35:37;;;;;;;27.02;4.80;;;;;;;18.07;91.80;100841.06;4821691;29;20137;-79
2021/08/09 05:38:03;;;;;;;23.15;5.32;;;;;;;17.96;91.84;100845.53;4828006;29;20065;-79
2021/08/09 05:40:28;;;;;;;24.85;5.32;;;;;;;17.91;92.69;100853.59;4827679;29;20064;-78
2021/08/09 05:42:55;;;;;;;31.52;5.93;;;;;;;17.80;93.29;100846.34;4821466;29;20055;-78
2021/08/09 05:45:21;;;;;;;27.15;5.03;;;;;;;17.74;93.62;100855.47;4818933;29;20434;-79
2021/08/09 05:47:46;;;;;;;22.73;5.05;;;;;;;17.93;92.67;100864.25;4821861;29;20354;-78
2021/08/09 05:50:12;;;;;;;19.52;4.80;;;;;;;18.14;91.75;100865.41;4816473;29;20129;-77
2021/08/09 05:52:39;;;;;;;21.60;5.05;;;;;;;18.34;90.94;100849.38;4818257;29;20046;-78
2021/08/09 05:55:06;;;;;;;19.13;4.70;;;;;;;18.51;90.32;100863.81;4793848;29;20030;-78
2021/08/09 05:57:32;;;;;;;20.73;4.78;;;;;;;18.61;89.68;100852.25;4813539;29;20034;-78
2021/08/09 05:59:57;;;;;;;18.30;4.60;;;;;;;18.66;89.53;100859.66;4812899;29;20050;-79
2021/08/09 06:02:23;;;;;;;18.55;4.18;;;;;;;18.85;89.27;100858.31;4812775;29;20130;-78
2021/08/09 06:04:48;;;;;;;20.88;4.80;;;;;;;18.96;88.74;100859.28;4813590;29;20364;-78
2021/08/09 06:07:17;;;;;;;18.65;3.97;;;;;;;19.14;88.13;100860.84;4819947;29;20434;-78
2021/08/09 06:09:45;;;;;;;23.00;4.72;;;;;;;18.87;88.34;100861.59;4819722;29;20430;-79
2021/08/09 06:12:11;;;;;;;16.38;4.07;;;;;;;18.80;88.06;100871.88;4825669;29;20033;-78
2021/08/09 06:14:38;;;;;;;12.27;3.60;;;;;;;18.75;87.41;100874.53;4825184;29;20030;-79
2021/08/09 06:17:05;;;;;;;13.57;3.55;;;;;;;18.62;87.36;100863.97;4822226;29;20402;-79
2021/08/09 06:19:31;;;;;;;19.42;4.00;;;;;;;18.73;87.03;100882.97;4828448;29;20038;-79
2021/08/09 06:21:57;;;;;;;15.38;4.30;;;;;;;18.89;86.58;100880.44;4825359;29;20046;-79
2021/08/09 06:24:22;;;;;;;16.73;3.63;;;;;;;18.96;85.43;100876.44;4824806;29;20034;-79
2021/08/09 06:26:49;;;;;;;17.63;3.83;;;;;;;19.06;85.56;100886.66;4825521;29;20063;-79
2021/08/09 06:29:14;;;;;;;13.85;3.65;;;;;;;19.23;85.06;100892.06;4827195;29;20049;-79
2021/08/09 06:31:42;;;;;;;20.02;4.50;;;;;;;19.38;84.54;100885.97;4828607;29;20358;-79
2021/08/09 06:34:08;;;;;;;18.92;4.07;;;;;;;19.35;84.54;100890.03;4828403;29;20373;-79
2021/08/09 06:36:35;;;;;;;20.60;4.22;;;;;;;19.35;84.74;100879.09;4828156;29;20038;-79
2021/08/09 06:39:00;;;;;;;17.10;4.18;;;;;;;19.45;84.48;100881.94;4828418;29;20030;-79
2021/08/09 06:41:26;;;;;;;25.45;4.30;;;;;;;19.61;84.11;100877.47;4825641;29;20057;-79
2021/08/09 06:43:51;;;;;;;13.45;3.75;;;;;;;19.80;83.60;100880.72;4826028;29;20069;-79
2021/08/09 06:46:17;;;;;;;12.32;3.75;;;;;;;19.70;83.59;100875.97;4829096;29;20121;-77
2021/08/09 06:48:43;;;;;;;20.70;4.60;;;;;;;19.84;82.85;100887.28;4832045;29;20523;-80
2021/08/09 06:51:08;;;;;;;14.80;4.05;;;;;;;19.91;82.94;100881.63;4830843;29;20060;-79
2021/08/09 06:53:34;;;;;;;17.33;4.20;;;;;;;20.00;82.15;100891.00;4831225;29;20433;-79
2021/08/09 06:55:59;;;;;;;17.77;3.92;;;;;;;19.99;81.48;100872.13;4831791;29;20038;-79
2021/08/09 06:58:25;;;;;;;13.70;3.53;;;;;;;20.08;81.09;100873.28;4833341;29;20374;-80
2021/08/09 07:00:50;;;;;;;13.98;3.75;;;;;;;20.12;80.17;100883.44;4833040;29;20049;-79
2021/08/09 07:03:17;;;;;;;14.82;3.80;;;;;;;20.17;79.82;100883.50;4829446;29;20045;-80
2021/08/09 07:05:48;;;;;;;12.82;3.72;;;;;;;20.12;79.19;100868.94;4803671;29;20049;-80
2021/08/09 07:08:14;;;;;;;14.30;3.30;;;;;;;20.23;78.67;100883.50;4829735;29;20053;-80
2021/08/09 07:10:41;;;;;;;13.98;3.20;;;;;;;20.32;78.42;100882.75;4828015;29;20449;-80
2021/08/09 07:13:06;;;;;;;12.55;2.80;;;;;;;20.28;78.29;100878.09;4814673;29;20377;-79
2021/08/09 07:15:32;;;;;;;13.00;3.30;;;;;;;20.22;78.37;100887.34;4833842;29;20034;-79
2021/08/09 07:17:57;;;;;;;12.65;3.10;;;;;;;20.37;77.61;100891.00;4831934;29;20068;-79
2021/08/09 07:20:22;;;;;;;10.82;3.30;;;;;;;20.23;77.56;100864.38;4829748;29;20035;-79
2021/08/09 07:22:48;;;;;;;11.88;2.97;;;;;;;20.24;77.56;100896.09;4828404;29;20031;-79
2021/08/09 07:25:15;;;;;;;13.70;2.80;;;;;;;19.95;78.52;100872.63;4834351;29;20025;-79
2021/08/09 07:27:42;;;;;;;14.40;3.38;;;;;;;20.02;78.60;100888.81;4841306;29;20128;-79
2021/08/09 07:30:09;;;;;;;11.60;3.10;;;;;;;20.16;78.27;100900.97;4850407;29;20522;-79
2021/08/09 07:32:35;;;;;;;10.50;3.20;;;;;;;20.07;78.28;100890.78;4847525;29;20094;-79
2021/08/09 07:35:01;;;;;;;12.35;3.75;;;;;;;19.86;78.80;100893.31;4851236;29;20422;-79
2021/08/09 07:37:26;;;;;;;14.00;3.55;;;;;;;19.89;78.88;100900.16;4835232;29;20054;-79
2021/08/09 07:39:51;;;;;;;10.18;3.00;;;;;;;19.95;78.13;100910.88;4830341;29;20038;-79
2021/08/09 07:42:17;;;;;;;14.30;3.20;;;;;;;20.04;77.40;100897.59;4834135;29;20525;-79
2021/08/09 07:44:42;;;;;;;10.48;3.20;;;;;;;20.27;76.98;100904.59;4837704;29;20031;-80
2021/08/09 07:47:08;;;;;;;12.00;2.83;;;;;;;20.52;76.53;100903.97;4832751;29;20075;-79
2021/08/09 07:49:33;;;;;;;13.55;3.38;;;;;;;20.68;76.60;100896.72;4835103;29;20489;-80
2021/08/09 07:51:58;;;;;;;14.07;3.17;;;;;;;20.80;76.21;100902.00;4849599;29;20045;-80
2021/08/09 07:54:25;;;;;;;12.90;3.15;;;;;;;20.95;76.29;100906.69;4847552;29;20080;-80
2021/08/09 07:56:52;;;;;;;9.00;2.72;;;;;;;20.97;75.83;100888.13;4842817;29;20033;-79
2021/08/09 07:59:19;;;;;;;12.32;2.90;;;;;;;20.99;75.20;100907.81;4852513;29;20034;-79
2021/08/09 08:01:44;;;;;;;13.45;3.65;;;;;;;20.83;74.99;100906.94;4851217;29;20041;-79
2021/08/09 08:04:10;;;;;;;12.40;3.25;;;;;;;20.82;75.66;100897.06;4854906;29;20034;-80
2021/08/09 08:06:36;;;;;;;14.02;3.17;;;;;;;20.99;74.84;100905.91;4848785;29;20064;-80
2021/08/09 08:09:02;;;;;;;12.75;3.58;;;;;;;21.07;75.11;100904.59;4842100;29;20109;-80
2021/08/09 08:11:28;;;;;;;10.02;2.90;;;;;;;20.99;75.68;100897.72;4843069;29;20034;-80
2021/08/09 08:13:53;;;;;;;13.50;3.70;;;;;;;21.14;75.44;100893.38;4855868;29;20038;-80
2021/08/09 08:16:19;;;;;;;12.80;2.85;;;;;;;21.15;74.65;100895.84;4837381;29;20049;-80
2021/08/09 08:18:45;;;;;;;12.95;3.15;;;;;;;21.23;74.97;100903.56;4851368;29;20388;-79
2021/08/09 08:21:11;;;;;;;10.70;2.90;;;;;;;21.25;74.47;100895.06;4856004;29;20041;-79
2021/08/09 08:23:37;;;;;;;12.65;3.33;;;;;;;21.32;74.75;100907.44;4857466;29;20064;-80
2021/08/09 08:26:03;;;;;;;11.40;3.35;;;;;;;21.31;74.71;100894.00;4863115;29;20026;-80
2021/08/09 08:28:28;;;;;;;11.80;2.85;;;;;;;21.32;73.79;100892.91;4863085;29;20456;-80
2021/08/09 08:30:54;;;;;;;11.57;3.00;;;;;;;21.42;73.52;100909.38;4878773;29;20029;-80
2021/08/09 08:33:19;;;;;;;12.65;2.80;;;;;;;21.14;73.65;100910.63;4845120;29;20066;-80
2021/08/09 08:35:45;;;;;;;11.57;2.83;;;;;;;20.93;73.29;100917.09;4860867;29;20030;-81
2021/08/09 08:38:10;;;;;;;16.05;3.22;;;;;;;20.75;73.29;100923.81;4863700;29;20067;-81
2021/08/09 08:40:50;;;;;;;10.32;2.92;;;;;;;20.65;73.43;100921.84;4864085;29;20037;-81
2021/08/09 08:43:34;;;;;;;11.23;2.50;;;;;;;20.48;73.81;100916.50;4859498;29;20030;-81
2021/08/09 08:46:02;;;;;;;10.35;2.70;;;;;;;20.34;74.05;100920.78;4843335;29;20042;-79
2021/08/09 08:48:31;;;;;;;10.65;3.00;;;;;;;20.27;74.35;100931.13;4860748;29;20015;-81
2021/08/09 08:50:58;;;;;;;9.82;2.78;;;;;;;20.13;74.35;100926.06;4846421;29;20055;-80
2021/08/09 08:53:27;;;;;;;11.02;2.80;;;;;;;20.11;74.45;100930.16;4846591;29;20086;-81
2021/08/09 08:55:53;;;;;;;10.02;2.55;;;;;;;20.02;74.70;100902.47;4846357;29;20056;-81
2021/08/09 08:58:18;;;;;;;10.43;2.40;;;;;;;20.21;74.22;100930.22;4846047;29;20042;-80
2021/08/09 09:00:47;;;;;;;6.05;2.30;;;;;;;20.07;73.94;100924.38;4845844;29;20057;-80
2021/08/09 09:03:20;;;;;;;9.68;2.38;;;;;;;20.10;73.35;100937.53;4846084;29;20058;-80
2021/08/09 09:05:58;;;;;;;8.50;2.20;;;;;;;20.07;73.33;100929.03;4845536;29;20023;-81
2021/08/09 09:08:37;;;;;;;9.38;2.20;;;;;;;20.32;73.04;100942.88;4844481;29;20077;-80
2021/08/09 09:11:02;;;;;;;9.20;2.42;;;;;;;20.60;72.85;100933.56;4827582;29;20038;-80
2021/08/09 09:13:28;;;;;;;5.32;1.80;;;;;;;20.74;71.65;100946.78;4827244;29;20102;-79
2021/08/09 09:16:02;;;;;;;9.50;1.95;;;;;;;20.76;71.13;100939.13;4837461;29;20112;-80
2021/08/09 09:18:51;;;;;;;6.82;2.30;;;;;;;20.85;70.92;100937.56;4846173;29;20069;-80
2021/08/09 09:21:38;;;;;;;9.95;2.25;;;;;;;20.82;70.25;100938.09;4845231;29;20099;-80
2021/08/09 09:24:09;;;;;;;8.02;1.92;;;;;;;21.03;70.91;100941.78;4862404;29;20010;-81
2021/08/09 09:26:38;;;;;;;9.45;2.33;;;;;;;21.12;70.56;100945.63;4865081;29;20037;-80
2021/08/09 09:29:12;;;;;;;9.35;2.45;;;;;;;21.06;70.96;100943.97;4846215;29;20034;-80
2021/08/09 09:31:39;;;;;;;9.48;2.30;;;;;;;20.97;70.79;100940.91;4844213;29;20037;-80
2021/08/09 09:34:14;;;;;;;8.63;2.17;;;;;;;20.91;71.16;100939.22;4838698;29;20042;-81
2021/08/09 09:36:46;;;;;;;8.25;2.20;;;;;;;20.98;71.81;100933.53;4861520;29;20020;-80
2021/08/09 09:39:34;;;;;;;7.70;2.03;;;;;;;20.84;71.79;100944.13;4863825;29;20030;-80
2021/08/09 09:42:03;;;;;;;8.18;2.35;;;;;;;20.71;72.23;100955.53;4854530;29;20054;-81
2021/08/09 09:44:31;;;;;;;9.02;2.22;;;;;;;20.57;71.84;100960.63;4845413;29;20006;-80
2021/08/09 09:47:22;;;;;;;9.90;2.40;;;;;;;20.37;71.84;100958.53;4846374;29;20026;-81
2021/08/09 09:49:56;;;;;;;5.82;2.33;;;;;;;20.44;72.20;100956.38;4861863;29;20057;-80
2021/08/09 09:52:47;;;;;;;7.43;1.90;;;;;;;20.63;72.00;100948.66;4836188;29;20072;-80
2021/08/09 09:55:14;;;;;;;7.82;1.85;;;;;;;20.81;71.71;100950.13;4838969;29;20038;-80
2021/08/09 09:57:43;;;;;;;8.43;2.30;;;;;;;20.90;71.09;100959.47;4837772;29;20365;-79
2021/08/09 10:00:12;;;;;;;5.25;1.65;;;;;;;20.86;70.62;100961.06;4832544;29;20038;-80
2021/08/09 10:02:44;;;;;;;9.48;2.38;;;;;;;20.90;69.97;100936.78;4830516;29;20026;-79
2021/08/09 10:05:11;;;;;;;7.43;2.13;;;;;;;20.93;69.97;100949.94;4837235;29;20049;-80
2021/08/09 10:07:38;;;;;;;5.15;1.90;;;;;;;21.09;69.83;100959.84;4833790;29;20443;-80
2021/08/09 10:10:06;;;;;;;7.82;1.90;;;;;;;20.96;70.08;100958.44;4834437;29;20026;-79
2021/08/09 10:12:33;;;;;;;6.05;1.92;;;;;;;20.88;70.44;100950.69;4830213;29;20338;-79
2021/08/09 10:14:59;;;;;;;8.30;2.00;;;;;;;20.69;70.83;100963.97;4831320;29;20038;-78
2021/08/09 10:17:29;;;;;;;5.70;2.00;;;;;;;20.65;70.59;100944.53;4837891;29;20034;-80
2021/08/09 10:20:00;;;;;;;9.20;1.95;;;;;;;21.04;69.75;100966.13;4831101;29;20034;-79
2021/08/09 10:22:25;;;;;;;7.32;1.75;;;;;;;20.96;69.28;100963.06;4825463;29;20030;-79
2021/08/09 10:24:51;;;;;;;7.00;1.80;;;;;;;20.92;69.22;100965.50;4813924;29;20035;-79
2021/08/09 10:27:37;;;;;;;8.20;2.17;;;;;;;20.79;69.70;100968.69;4813395;29;20027;-79
2021/08/09 10:30:04;;;;;;;6.68;2.15;;;;;;;21.00;70.39;100981.44;4829404;29;20046;-79
2021/08/09 10:32:53;;;;;;;7.45;2.00;;;;;;;20.86;70.13;100934.56;4830294;29;20041;-79
2021/08/09 10:35:40;;;;;;;8.25;1.90;;;;;;;21.30;69.99;100971.75;4837581;29;20042;-80
2021/08/09 10:38:21;;;;;;;9.75;2.53;;;;;;;21.37;69.57;100955.91;4831917;29;20068;-80
2021/08/09 10:41:08;;;;;;;7.93;2.38;;;;;;;21.33;69.39;100973.94;4830019;29;20083;-80
2021/08/09 10:43:54;;;;;;;7.85;2.10;;;;;;;21.23;70.12;100976.63;4837968;29;20030;-79
2021/08/09 10:46:50;;;;;;;7.43;2.20;;;;;;;21.14;69.86;100980.97;4849635;29;20034;-79
2021/08/09 10:49:54;;;;;;;6.40;2.10;;;;;;;21.09;69.68;100982.59;4822896;29;20389;-79
2021/08/09 10:52:34;;;;;;;9.60;2.45;;;;;;;21.01;70.50;100988.53;4832441;29;20049;-79
2021/08/09 10:55:30;;;;;;;6.60;2.15;;;;;;;21.15;70.61;100985.31;4815393;29;20144;-79
2021/08/09 10:57:59;;;;;;;8.55;2.65;;;;;;;21.55;70.42;100977.31;4826359;29;20038;-79
2021/08/09 11:00:40;;;;;;;5.15;2.00;;;;;;;21.83;69.77;100985.38;4824682;29;20061;-79
2021/08/09 11:03:09;;;;;;;8.32;2.22;;;;;;;21.88;69.44;100991.69;4824794;29;20121;-79
2021/08/09 11:05:35;;;;;;;6.90;2.05;;;;;;;21.92;68.95;100981.00;4831088;29;20042;-79
2021/08/09 11:08:16;;;;;;;6.25;1.85;;;;;;;21.78;69.07;100976.03;4838234;29;20039;-79
2021/08/09 11:10:59;;;;;;;6.78;1.83;;;;;;;21.64;68.98;100983.13;4826100;29;20034;-79
2021/08/09 11:13:26;;;;;;;5.57;2.00;;;;;;;21.49;69.68;100980.31;4826873;29;20034;-78
2021/08/09 11:15:59;;;;;;;5.90;2.03;;;;;;;21.28;69.91;100982.94;4825405;29;20364;-78
2021/08/09 11:18:27;;;;;;;6.43;2.10;;;;;;;21.32;69.99;100977.75;4843564;29;20046;-80
2021/08/09 11:21:13;;;;;;;6.97;2.15;;;;;;;21.27;69.76;100985.94;4844024;29;20057;-81
2021/08/09 11:23:45;;;;;;;9.00;1.70;;;;;;;21.18;69.98;100993.00;4852431;29;20049;-80